Time;durP1;ratioP1;P1;durP2;ratioP2;P2;SDS_P1;SDS_P2;PMS_P1;PMS_P2;Temp;Humidity;BMP_temperature;BMP_pressure;BME280_temperature;BME280_humidity;BME280_pressure;Samples;Min_cycle;Max_cycle;Signal;HPM_P1;HPM_P2
2022/06/09 00:01:37;;;;;;;;;;;15.80;94.70;;;;;;5051985;28;19967;-59
2022/06/09 00:04:24;;;;;;;;;;;15.80;95.00;;;;;;5051820;28;20026;-59
2022/06/09 00:06:52;;;;;;;;;;;15.70;94.80;;;;;;5052187;28;19962;-59
2022/06/09 00:09:19;;;;;;;;;;;15.70;94.80;;;;;;5052562;28;19966;-59
2022/06/09 00:11:47;;;;;;;;;;;15.70;95.30;;;;;;5033485;28;20373;-59
2022/06/09 00:14:13;;;;;;;;;;;15.70;95.40;;;;;;5051817;28;20276;-59
2022/06/09 00:16:38;;;;;;;;;;;15.60;95.10;;;;;;5050474;28;20433;-59
2022/06/09 00:19:05;;;;;;;;;;;15.50;95.50;;;;;;5051693;28;20426;-59
2022/06/09 00:21:31;;;;;;;;;;;15.50;95.60;;;;;;5052494;28;19912;-58
2022/06/09 00:23:56;;;;;;;;;;;15.50;95.40;;;;;;5051571;28;20437;-58
2022/06/09 00:26:22;;;;;;;;;;;15.40;95.50;;;;;;5051226;28;19909;-58
2022/06/09 00:28:47;;;;;;;;;;;15.40;95.70;;;;;;5051350;28;19917;-58
2022/06/09 00:31:13;;;;;;;;;;;15.50;95.60;;;;;;5051418;28;20417;-58
2022/06/09 00:33:38;;;;;;;;;;;15.40;95.70;;;;;;5051534;28;19913;-57
2022/06/09 00:36:04;;;;;;;;;;;15.40;96.10;;;;;;5051610;28;20016;-58
2022/06/09 00:38:29;;;;;;;;;;;15.40;95.60;;;;;;5051664;28;20023;-59
2022/06/09 00:40:59;;;;;;;;;;;15.30;96.20;;;;;;5033132;28;19913;-58
2022/06/09 00:43:25;;;;;;;;;;;15.30;96.00;;;;;;5050950;28;20299;-58
2022/06/09 00:46:02;;;;;;;;;;;15.30;96.50;;;;;;5050841;28;19972;-58
2022/06/09 00:48:40;;;;;;;;;;;15.30;96.50;;;;;;5051794;28;19939;-57
2022/06/09 00:51:14;;;;;;;;;;;15.30;96.40;;;;;;5050997;28;19923;-58
2022/06/09 00:53:41;;;;;;;;;;;15.30;96.10;;;;;;5048850;28;19954;-58
2022/06/09 00:56:07;;;;;;;;;;;15.20;96.70;;;;;;5050693;28;19913;-58
2022/06/09 00:58:35;;;;;;;;;;;15.20;96.50;;;;;;5050978;28;19917;-58
2022/06/09 01:01:02;;;;;;;;;;;15.20;97.00;;;;;;5051189;28;19924;-57
2022/06/09 01:03:36;;;;;;;;;;;15.10;96.70;;;;;;5051881;28;20004;-58
2022/06/09 01:06:07;;;;;;;;;;;15.10;97.00;;;;;;5051484;28;19917;-57
2022/06/09 01:08:35;;;;;;;;;;;15.10;97.10;;;;;;5050753;28;19912;-57
2022/06/09 01:11:01;;;;;;;;;;;15.10;96.90;;;;;;5051122;28;19913;-59
2022/06/09 01:13:27;;;;;;;;;;;15.00;97.20;;;;;;5051189;28;19927;-58
2022/06/09 01:16:12;;;;;;;;;;;15.00;97.10;;;;;;5050747;28;20402;-59
2022/06/09 01:18:47;;;;;;;;;;;15.00;97.60;;;;;;5036787;28;19917;-59
2022/06/09 01:21:22;;;;;;;;;;;15.00;97.40;;;;;;5051868;28;19924;-57
2022/06/09 01:24:14;;;;;;;;;;;15.00;97.30;;;;;;5050540;28;20387;-59
2022/06/09 01:26:55;;;;;;;;;;;15.00;97.70;;;;;;4969783;28;20063;-59
2022/06/09 01:29:21;;;;;;;;;;;15.00;97.90;;;;;;4969663;28;19925;-59
2022/06/09 01:31:47;;;;;;;;;;;15.00;97.60;;;;;;4969046;28;19914;-59
2022/06/09 01:34:19;;;;;;;;;;;15.00;97.30;;;;;;4969723;28;20475;-58
2022/06/09 01:36:59;;;;;;;;;;;15.00;97.50;;;;;;4969683;28;20013;-58
2022/06/09 01:39:57;;;;;;;;;;;15.00;97.80;;;;;;4970615;28;19918;-59
2022/06/09 01:42:37;;;;;;;;;;;15.00;97.80;;;;;;4912607;29;19926;-59
2022/06/09 01:45:15;;;;;;;;;;;14.90;98.00;;;;;;4914695;28;20528;-59
2022/06/09 01:47:52;;;;;;;;;;;14.90;98.00;;;;;;4912153;29;19974;-59
2022/06/09 01:50:22;;;;;;;;;;;14.80;97.70;;;;;;4911934;29;19915;-58
2022/06/09 01:52:48;;;;;;;;;;;14.80;98.30;;;;;;4911978;29;19915;-59
2022/06/09 01:55:16;;;;;;;;;;;14.80;98.30;;;;;;4912316;29;19982;-59
2022/06/09 01:57:43;;;;;;;;;;;14.80;98.10;;;;;;4912082;29;19919;-58
2022/06/09 02:00:12;;;;;;;;;;;14.80;98.20;;;;;;4911923;29;20338;-59
2022/06/09 02:02:55;;;;;;;;;;;14.80;98.10;;;;;;4921736;28;20552;-57
2022/06/09 02:05:26;;;;;;;;;;;14.80;98.40;;;;;;4988622;28;19924;-58
2022/06/09 02:07:54;;;;;;;;;;;14.80;98.40;;;;;;4987996;28;19917;-58
2022/06/09 02:10:22;;;;;;;;;;;14.70;98.90;;;;;;4988190;28;19913;-58
2022/06/09 02:12:48;;;;;;;;;;;14.70;99.00;;;;;;4988446;28;19916;-58
2022/06/09 02:15:17;;;;;;;;;;;14.70;99.40;;;;;;4977397;28;19910;-58
2022/06/09 02:17:47;;;;;;;;;;;14.70;99.00;;;;;;5011990;28;20011;-58
2022/06/09 02:20:13;;;;;;;;;;;14.70;99.00;;;;;;5050064;28;19970;-58
2022/06/09 02:22:38;;;;;;;;;;;14.60;99.50;;;;;;5049736;28;19916;-58
2022/06/09 02:25:04;;;;;;;;;;;14.60;99.30;;;;;;5049621;28;19958;-58
2022/06/09 02:27:29;;;;;;;;;;;14.60;99.80;;;;;;5050935;28;20812;-58
2022/06/09 02:29:55;;;;;;;;;;;14.60;99.40;;;;;;5049590;28;19982;-58
2022/06/09 02:32:20;;;;;;;;;;;14.60;99.60;;;;;;5049996;28;19921;-59
2022/06/09 02:34:46;;;;;;;;;;;14.60;99.60;;;;;;5049593;28;19913;-57
2022/06/09 02:37:11;;;;;;;;;;;14.60;99.80;;;;;;5047079;28;20315;-58
2022/06/09 02:39:37;;;;;;;;;;;14.60;99.80;;;;;;5050424;28;19919;-59
2022/06/09 02:42:03;;;;;;;;;;;14.60;99.50;;;;;;5050150;28;19915;-59
2022/06/09 02:44:29;;;;;;;;;;;14.50;99.50;;;;;;5049458;28;19913;-59
2022/06/09 02:46:54;;;;;;;;;;;14.60;99.90;;;;;;5049380;28;19920;-59
2022/06/09 02:49:21;;;;;;;;;;;14.50;99.90;;;;;;5049438;28;20490;-59
2022/06/09 02:51:47;;;;;;;;;;;14.50;99.90;;;;;;5049503;28;19959;-58
2022/06/09 02:54:13;;;;;;;;;;;14.50;99.90;;;;;;5050262;28;19944;-58
2022/06/09 02:56:39;;;;;;;;;;;14.50;99.90;;;;;;5048885;28;20632;-58
2022/06/09 02:59:04;;;;;;;;;;;14.50;99.90;;;;;;5030893;28;19917;-58
2022/06/09 03:01:30;;;;;;;;;;;14.50;99.90;;;;;;5049083;28;20338;-58
2022/06/09 03:03:55;;;;;;;;;;;14.50;99.90;;;;;;5049075;28;19967;-58
2022/06/09 03:06:21;;;;;;;;;;;14.50;99.90;;;;;;5050607;28;19916;-57
2022/06/09 03:08:47;;;;;;;;;;;14.50;99.90;;;;;;5049106;28;19966;-58
2022/06/09 03:11:13;;;;;;;;;;;14.40;99.90;;;;;;5048707;28;19963;-58
2022/06/09 03:13:39;;;;;;;;;;;14.40;99.90;;;;;;5047344;28;19912;-58
2022/06/09 03:16:05;;;;;;;;;;;14.40;99.90;;;;;;5049183;28;19913;-58
2022/06/09 03:18:32;;;;;;;;;;;14.40;99.90;;;;;;5050075;28;19959;-58
2022/06/09 03:20:57;;;;;;;;;;;14.40;99.90;;;;;;5049721;28;19948;-56
2022/06/09 03:23:23;;;;;;;;;;;14.40;99.90;;;;;;5049254;28;19933;-59
2022/06/09 03:25:48;;;;;;;;;;;14.40;99.90;;;;;;5048652;28;19920;-59
2022/06/09 03:28:14;;;;;;;;;;;14.40;99.90;;;;;;5051870;28;19915;-59
2022/06/09 03:30:40;;;;;;;;;;;14.30;99.90;;;;;;5053669;28;20416;-59
2022/06/09 03:33:05;;;;;;;;;;;14.20;99.90;;;;;;5053526;28;20302;-59
2022/06/09 03:35:31;;;;;;;;;;;14.30;99.90;;;;;;5050737;28;20328;-58
2022/06/09 03:37:57;;;;;;;;;;;14.20;99.90;;;;;;5052960;28;19921;-58
2022/06/09 03:40:23;;;;;;;;;;;14.20;99.90;;;;;;5052781;28;19920;-59
2022/06/09 03:42:49;;;;;;;;;;;14.10;99.90;;;;;;5053026;28;19963;-59
2022/06/09 03:45:15;;;;;;;;;;;14.20;99.90;;;;;;5053788;28;19960;-59
2022/06/09 03:47:40;;;;;;;;;;;14.20;99.90;;;;;;5052189;28;19970;-59
2022/06/09 03:50:07;;;;;;;;;;;14.10;99.90;;;;;;5052489;28;19913;-58
2022/06/09 03:52:32;;;;;;;;;;;14.10;99.90;;;;;;5046091;28;19920;-59
2022/06/09 03:54:58;;;;;;;;;;;14.10;99.90;;;;;;5052547;28;19913;-59
2022/06/09 03:57:24;;;;;;;;;;;14.10;99.90;;;;;;5056375;28;19917;-58
2022/06/09 03:59:49;;;;;;;;;;;14.20;99.90;;;;;;5053027;28;19920;-59
2022/06/09 04:02:15;;;;;;;;;;;14.20;99.90;;;;;;5052804;28;20341;-60
2022/06/09 04:04:40;;;;;;;;;;;14.10;99.90;;;;;;5052223;28;19924;-58
2022/06/09 04:07:06;;;;;;;;;;;14.10;99.90;;;;;;5054695;28;19923;-59
2022/06/09 04:09:31;;;;;;;;;;;14.10;99.90;;;;;;5035042;28;20606;-58
2022/06/09 04:11:57;;;;;;;;;;;14.20;99.90;;;;;;5052201;28;19931;-59
2022/06/09 04:14:22;;;;;;;;;;;14.20;99.90;;;;;;5051790;28;19913;-57
2022/06/09 04:16:48;;;;;;;;;;;14.10;99.90;;;;;;5050687;28;19919;-58
2022/06/09 04:19:15;;;;;;;;;;;14.20;99.90;;;;;;5051381;28;20318;-57
2022/06/09 04:21:40;;;;;;;;;;;14.20;99.90;;;;;;5017258;28;19909;-58
2022/06/09 04:24:06;;;;;;;;;;;14.20;99.90;;;;;;5051962;28;19913;-58
2022/06/09 04:26:34;;;;;;;;;;;14.30;99.90;;;;;;5051196;28;19923;-57
2022/06/09 04:28:59;;;;;;;;;;;14.20;99.90;;;;;;5051776;28;19919;-58
2022/06/09 04:31:25;;;;;;;;;;;14.20;99.90;;;;;;5033465;28;20347;-58
2022/06/09 04:33:50;;;;;;;;;;;14.20;99.90;;;;;;5051165;28;19921;-58
2022/06/09 04:36:17;;;;;;;;;;;14.30;99.90;;;;;;5052484;28;19916;-57
2022/06/09 04:38:42;;;;;;;;;;;14.30;99.90;;;;;;5050292;28;19936;-58
2022/06/09 04:41:09;;;;;;;;;;;14.30;99.90;;;;;;5051117;28;19912;-58
2022/06/09 04:43:38;;;;;;;;;;;14.40;99.90;;;;;;5051439;28;20287;-58
2022/06/09 04:46:04;;;;;;;;;;;14.40;99.90;;;;;;5051035;28;19935;-59
2022/06/09 04:48:30;;;;;;;;;;;14.40;99.90;;;;;;5052246;28;19913;-59
2022/06/09 04:50:56;;;;;;;;;;;14.50;99.90;;;;;;5051047;28;19917;-59
2022/06/09 04:53:22;;;;;;;;;;;14.50;99.90;;;;;;5050467;28;19928;-59
2022/06/09 04:55:47;;;;;;;;;;;14.50;99.90;;;;;;5050925;28;19912;-58
2022/06/09 04:58:13;;;;;;;;;;;14.60;99.90;;;;;;5050997;28;19920;-59
2022/06/09 05:00:39;;;;;;;;;;;14.60;99.90;;;;;;5051142;28;19925;-58
2022/06/09 05:03:11;;;;;;;;;;;14.60;99.90;;;;;;5051487;28;19971;-58
2022/06/09 05:05:38;;;;;;;;;;;14.70;99.90;;;;;;5050358;28;19913;-58
2022/06/09 05:08:03;;;;;;;;;;;14.60;99.90;;;;;;5049462;28;19952;-58
2022/06/09 05:10:29;;;;;;;;;;;14.70;99.90;;;;;;5050834;28;19940;-57
2022/06/09 05:12:56;;;;;;;;;;;14.70;99.90;;;;;;5050716;28;20328;-57
2022/06/09 05:15:21;;;;;;;;;;;14.70;99.90;;;;;;5051413;28;20020;-56
2022/06/09 05:17:50;;;;;;;;;;;14.80;99.90;;;;;;5047900;28;20445;-56
2022/06/09 05:20:17;;;;;;;;;;;14.80;99.90;;;;;;5050136;28;19925;-58
2022/06/09 05:22:43;;;;;;;;;;;14.80;99.90;;;;;;5049097;28;20322;-57
2022/06/09 05:25:09;;;;;;;;;;;14.90;99.90;;;;;;5050379;28;19950;-58
2022/06/09 05:27:35;;;;;;;;;;;14.90;99.90;;;;;;5050045;28;19909;-58
2022/06/09 05:30:01;;;;;;;;;;;15.00;99.90;;;;;;5050148;28;19909;-56
2022/06/09 05:32:27;;;;;;;;;;;15.00;99.90;;;;;;5044517;28;19935;-57
2022/06/09 05:34:52;;;;;;;;;;;15.10;99.90;;;;;;5050608;28;20413;-57
2022/06/09 05:37:18;;;;;;;;;;;15.10;99.90;;;;;;5030171;28;19921;-58
2022/06/09 05:45:13;;;;;;;;;;;15.20;99.90;;;;;;5049902;28;19986;-58
2022/06/09 05:47:38;;;;;;;;;;;15.20;99.90;;;;;;5049285;28;20387;-57
2022/06/09 05:50:04;;;;;;;;;;;15.30;99.90;;;;;;5050548;28;20007;-58
2022/06/09 05:52:30;;;;;;;;;;;15.30;99.90;;;;;;5053570;28;19939;-57
2022/06/09 05:54:56;;;;;;;;;;;15.40;99.90;;;;;;5051367;28;19913;-58
2022/06/09 05:57:22;;;;;;;;;;;15.50;99.90;;;;;;5045316;28;20606;-57
2022/06/09 05:59:48;;;;;;;;;;;15.60;99.90;;;;;;5045549;28;20040;-58
2022/06/09 06:02:15;;;;;;;;;;;15.60;99.90;;;;;;5047784;28;20114;-54
2022/06/09 06:04:40;;;;;;;;;;;15.70;99.90;;;;;;5047084;28;19962;-57
2022/06/09 06:07:07;;;;;;;;;;;15.80;99.90;;;;;;5048347;28;19921;-58
2022/06/09 06:09:32;;;;;;;;;;;15.90;99.90;;;;;;5048825;28;19932;-57
2022/06/09 06:11:58;;;;;;;;;;;15.90;99.90;;;;;;5048441;28;19913;-58
2022/06/09 06:14:23;;;;;;;;;;;15.90;99.90;;;;;;5046280;28;19912;-58
2022/06/09 06:16:49;;;;;;;;;;;15.90;99.90;;;;;;5047066;28;19917;-58
2022/06/09 06:19:17;;;;;;;;;;;15.80;99.90;;;;;;5047075;28;19916;-58
2022/06/09 06:21:43;;;;;;;;;;;15.80;99.90;;;;;;5047160;28;20290;-58
2022/06/09 06:24:09;;;;;;;;;;;15.80;99.90;;;;;;5048283;28;19916;-58
2022/06/09 06:26:35;;;;;;;;;;;15.80;99.90;;;;;;5048179;28;20003;-59
2022/06/09 06:29:01;;;;;;;;;;;15.70;99.90;;;;;;5046947;28;20756;-59
2022/06/09 06:31:27;;;;;;;;;;;15.70;99.90;;;;;;5045797;28;19919;-58
2022/06/09 06:33:52;;;;;;;;;;;15.60;99.90;;;;;;5046722;28;20008;-56
2022/06/09 06:36:18;;;;;;;;;;;15.60;99.90;;;;;;5047544;28;19986;-56
2022/06/09 06:38:44;;;;;;;;;;;15.60;99.90;;;;;;5046800;28;20398;-58
2022/06/09 06:41:10;;;;;;;;;;;15.70;99.90;;;;;;5046325;28;19917;-58
2022/06/09 06:43:36;;;;;;;;;;;15.70;99.90;;;;;;5047055;28;19935;-59
2022/06/09 06:46:02;;;;;;;;;;;15.80;99.90;;;;;;5047153;28;19913;-59
2022/06/09 06:48:28;;;;;;;;;;;15.80;99.90;;;;;;5048607;28;20418;-56
2022/06/09 06:50:53;;;;;;;;;;;15.90;99.90;;;;;;5046681;28;19963;-60
2022/06/09 06:53:19;;;;;;;;;;;15.90;99.90;;;;;;5047322;28;19921;-67
2022/06/09 06:55:45;;;;;;;;;;;15.90;99.90;;;;;;5047172;28;19913;-70
2022/06/09 06:58:10;;;;;;;;;;;15.90;99.90;;;;;;5047025;28;19920;-67
2022/06/09 07:00:36;;;;;;;;;;;15.90;99.90;;;;;;5047678;28;20004;-68
2022/06/09 07:03:02;;;;;;;;;;;16.00;99.90;;;;;;5051440;28;19913;-68
2022/06/09 07:05:27;;;;;;;;;;;16.10;99.90;;;;;;5050850;28;19920;-68
2022/06/09 07:07:53;;;;;;;;;;;16.10;99.90;;;;;;5053038;28;20409;-67
2022/06/09 07:10:19;;;;;;;;;;;16.10;99.90;;;;;;5051369;28;19917;-68
2022/06/09 07:12:45;;;;;;;;;;;16.10;99.90;;;;;;5050615;28;19959;-67
2022/06/09 07:15:12;;;;;;;;;;;16.10;99.90;;;;;;5050969;28;19913;-69
2022/06/09 07:17:38;;;;;;;;;;;16.00;99.90;;;;;;5051890;28;19955;-67
2022/06/09 07:20:04;;;;;;;;;;;15.90;99.90;;;;;;5050809;28;19917;-68
2022/06/09 07:22:29;;;;;;;;;;;16.00;99.90;;;;;;5050917;28;19970;-68
2022/06/09 07:24:55;;;;;;;;;;;16.10;99.90;;;;;;5050254;28;20382;-69
2022/06/09 07:27:21;;;;;;;;;;;16.20;99.90;;;;;;5051305;28;20047;-67
2022/06/09 07:29:47;;;;;;;;;;;16.30;99.90;;;;;;5050739;28;20003;-69
2022/06/09 07:32:12;;;;;;;;;;;16.30;99.90;;;;;;5050400;28;19924;-66
2022/06/09 07:34:38;;;;;;;;;;;16.30;99.90;;;;;;5050877;28;20398;-68
2022/06/09 07:37:04;;;;;;;;;;;16.40;99.90;;;;;;5050730;28;19916;-68
2022/06/09 07:39:29;;;;;;;;;;;16.40;99.90;;;;;;5051446;28;20310;-68
2022/06/09 07:41:55;;;;;;;;;;;16.50;99.90;;;;;;5049665;28;19912;-64
2022/06/09 07:44:21;;;;;;;;;;;16.50;99.90;;;;;;5049907;28;20015;-70
2022/06/09 07:46:46;;;;;;;;;;;16.50;99.90;;;;;;5050028;28;19952;-69
2022/06/09 07:49:12;;;;;;;;;;;16.50;99.90;;;;;;5048387;28;19925;-65
2022/06/09 07:51:38;;;;;;;;;;;16.50;99.90;;;;;;5050775;28;19948;-67
2022/06/09 07:54:04;;;;;;;;;;;16.50;99.90;;;;;;5050690;28;20325;-67
2022/06/09 07:56:32;;;;;;;;;;;16.50;99.90;;;;;;5050421;28;20004;-68
2022/06/09 07:58:58;;;;;;;;;;;16.50;99.90;;;;;;5046421;28;19921;-68
2022/06/09 08:01:23;;;;;;;;;;;16.50;99.90;;;;;;5048718;28;19924;-68
2022/06/09 08:03:49;;;;;;;;;;;16.40;99.90;;;;;;5031597;28;19920;-68
2022/06/09 08:06:14;;;;;;;;;;;16.40;99.90;;;;;;5051098;28;20394;-69
2022/06/09 08:08:40;;;;;;;;;;;16.40;99.90;;;;;;5050340;28;19912;-69
2022/06/09 08:11:07;;;;;;;;;;;16.50;99.90;;;;;;5049793;28;19991;-69
2022/06/09 08:13:33;;;;;;;;;;;16.50;99.90;;;;;;5048175;28;19916;-68
2022/06/09 08:15:59;;;;;;;;;;;16.60;99.90;;;;;;5049444;28;19912;-68
2022/06/09 08:18:25;;;;;;;;;;;16.60;99.90;;;;;;5050487;28;19931;-68
2022/06/09 08:20:50;;;;;;;;;;;16.70;99.90;;;;;;5049925;28;19943;-68
2022/06/09 08:23:18;;;;;;;;;;;16.70;99.90;;;;;;5049185;28;20445;-66
2022/06/09 08:25:44;;;;;;;;;;;16.80;99.90;;;;;;5049553;28;20003;-67
2022/06/09 08:28:10;;;;;;;;;;;16.80;99.50;;;;;;5049243;28;19913;-64
2022/06/09 08:30:36;;;;;;;;;;;16.80;99.60;;;;;;5049925;28;19923;-67
2022/06/09 08:33:02;;;;;;;;;;;16.80;99.90;;;;;;5050344;28;19919;-67
2022/06/09 08:35:28;;;;;;;;;;;16.90;99.30;;;;;;5049078;28;19913;-65
2022/06/09 08:37:54;;;;;;;;;;;16.90;99.20;;;;;;5050795;28;19924;-66
2022/06/09 08:40:21;;;;;;;;;;;16.80;99.10;;;;;;5049127;28;20395;-68
2022/06/09 08:43:22;;;;;;;;;;;16.80;99.00;;;;;;5050729;28;19935;-67
2022/06/09 08:45:48;;;;;;;;;;;16.80;99.10;;;;;;4963145;28;19914;-66
2022/06/09 08:48:24;;;;;;;;;;;16.80;98.80;;;;;;4965456;28;20663;-65
2022/06/09 08:50:59;;;;;;;;;;;16.80;98.70;;;;;;4962180;28;20459;-67
2022/06/09 08:53:30;;;;;;;;;;;16.80;98.30;;;;;;4960646;28;19961;-67
2022/06/09 08:56:02;;;;;;;;;;;16.80;98.50;;;;;;4962714;28;19918;-67
2022/06/09 08:58:45;;;;;;;;;;;16.90;98.40;;;;;;4962402;28;20360;-66
2022/06/09 09:01:10;;;;;;;;;;;17.00;98.40;;;;;;4957456;28;19928;-67
2022/06/09 09:03:35;;;;;;;;;;;17.00;97.90;;;;;;4959547;28;19918;-67
2022/06/09 09:06:21;;;;;;;;;;;17.00;98.00;;;;;;4964214;28;19968;-66
2022/06/09 09:08:47;;;;;;;;;;;17.00;98.50;;;;;;4963117;28;19921;-65
2022/06/09 09:11:15;;;;;;;;;;;17.10;98.50;;;;;;4962376;28;19918;-68
2022/06/09 09:13:50;;;;;;;;;;;17.20;98.40;;;;;;4964627;28;20454;-67
2022/06/09 09:16:19;;;;;;;;;;;17.20;98.20;;;;;;4960244;28;20357;-67
2022/06/09 09:18:52;;;;;;;;;;;17.30;98.40;;;;;;4968456;28;19926;-64
2022/06/09 09:21:25;;;;;;;;;;;17.40;97.90;;;;;;5049924;28;19912;-66
2022/06/09 09:24:00;;;;;;;;;;;17.40;97.20;;;;;;5048418;28;19917;-67
2022/06/09 09:26:44;;;;;;;;;;;17.40;97.50;;;;;;5048371;28;20402;-67
2022/06/09 09:29:16;;;;;;;;;;;17.50;97.20;;;;;;5047616;28;20502;-67
2022/06/09 09:31:45;;;;;;;;;;;17.50;97.70;;;;;;5049814;28;20375;-66
2022/06/09 09:34:19;;;;;;;;;;;17.70;97.60;;;;;;5047616;28;19912;-63
2022/06/09 09:36:48;;;;;;;;;;;17.90;97.40;;;;;;5049591;28;19916;-66
2022/06/09 09:39:19;;;;;;;;;;;18.00;97.40;;;;;;5048790;28;19924;-67
2022/06/09 09:41:45;;;;;;;;;;;18.10;97.10;;;;;;5048097;28;19913;-66
2022/06/09 09:44:15;;;;;;;;;;;18.10;95.80;;;;;;5046868;28;21369;-66
2022/06/09 09:46:41;;;;;;;;;;;18.10;97.00;;;;;;5024144;28;19921;-66
2022/06/09 09:49:18;;;;;;;;;;;18.20;97.00;;;;;;5047961;28;19995;-67
2022/06/09 09:51:44;;;;;;;;;;;18.30;95.60;;;;;;5046577;28;19917;-67
2022/06/09 09:54:17;;;;;;;;;;;18.20;95.30;;;;;;5049039;28;19920;-68
2022/06/09 09:56:43;;;;;;;;;;;18.10;94.80;;;;;;5046225;28;20128;-66
2022/06/09 09:59:17;;;;;;;;;;;18.00;95.50;;;;;;5049650;28;19998;-68
2022/06/09 10:10:06;;;;;;;;;;;18.40;95.90;;;;;;5047623;28;19992;-68
2022/06/09 10:12:34;;;;;;;;;;;18.50;94.30;;;;;;5047331;28;19913;-68
2022/06/09 10:15:02;;;;;;;;;;;18.50;94.40;;;;;;5048258;28;20299;-68
2022/06/09 10:18:03;;;;;;;;;;;18.50;94.00;;;;;;5047659;28;19927;-68
2022/06/09 10:20:28;;;;;;;;;;;18.50;93.90;;;;;;4948154;28;19998;-58
2022/06/09 10:23:02;;;;;;;;;;;18.50;93.70;;;;;;4951050;28;19915;-67
2022/06/09 10:25:28;;;;;;;;;;;18.50;93.40;;;;;;4949781;28;19997;-67
2022/06/09 10:27:58;;;;;;;;;;;18.60;93.80;;;;;;4948977;28;19922;-66
2022/06/09 10:30:26;;;;;;;;;;;18.70;94.40;;;;;;4954239;28;19918;-68
2022/06/09 10:32:51;;;;;;;;;;;18.90;94.40;;;;;;4947958;28;20451;-65
2022/06/09 10:35:26;;;;;;;;;;;19.00;93.50;;;;;;4948535;28;19915;-68
2022/06/09 10:37:56;;;;;;;;;;;19.00;93.80;;;;;;4947506;28;20456;-67
2022/06/09 10:40:35;;;;;;;;;;;19.10;94.20;;;;;;4946833;28;19949;-66
2022/06/09 10:43:20;;;;;;;;;;;19.20;94.10;;;;;;4947159;29;20420;-61
2022/06/09 10:45:49;;;;;;;;;;;19.40;93.40;;;;;;4945920;29;19915;-66
2022/06/09 10:56:40;;;;;;;;;;;19.30;91.60;;;;;;5046852;28;20415;-68
2022/06/09 10:59:16;;;;;;;;;;;19.30;91.60;;;;;;5044950;28;19921;-68
2022/06/09 11:01:42;;;;;;;;;;;19.30;91.50;;;;;;5046663;28;20031;-66
2022/06/09 11:04:12;;;;;;;;;;;19.30;91.60;;;;;;5048587;28;20436;-69
2022/06/09 11:06:40;;;;;;;;;;;19.40;92.30;;;;;;5049920;28;20409;-70
2022/06/09 11:09:14;;;;;;;;;;;19.40;90.90;;;;;;5050089;28;19916;-69
2022/06/09 11:11:48;;;;;;;;;;;19.40;90.20;;;;;;5048434;28;19975;-69
2022/06/09 11:14:23;;;;;;;;;;;19.40;90.30;;;;;;5050148;28;19917;-69
2022/06/09 11:17:00;;;;;;;;;;;19.40;90.10;;;;;;5048906;28;19920;-70
2022/06/09 11:19:25;;;;;;;;;;;19.40;90.20;;;;;;5049444;28;19952;-70
2022/06/09 11:22:06;;;;;;;;;;;19.50;90.70;;;;;;5048830;28;20395;-68
2022/06/09 11:24:33;;;;;;;;;;;19.60;90.80;;;;;;5049735;28;19909;-68
2022/06/09 11:27:16;;;;;;;;;;;19.80;90.20;;;;;;5048810;28;19917;-69
2022/06/09 11:29:48;;;;;;;;;;;19.80;89.40;;;;;;5048729;28;19978;-67
2022/06/09 11:32:21;;;;;;;;;;;19.80;89.30;;;;;;5048799;28;19967;-69
2022/06/09 11:35:06;;;;;;;;;;;19.90;89.40;;;;;;5048817;28;19913;-69
2022/06/09 11:37:39;;;;;;;;;;;19.90;89.40;;;;;;5049329;28;19948;-68
2022/06/09 11:40:05;;;;;;;;;;;19.90;89.70;;;;;;5044032;28;19987;-69
2022/06/09 11:42:42;;;;;;;;;;;20.00;88.50;;;;;;5049905;28;20395;-67
2022/06/09 11:45:26;;;;;;;;;;;20.00;89.10;;;;;;5048871;28;19917;-67
2022/06/09 11:47:53;;;;;;;;;;;20.00;88.60;;;;;;5050022;28;19940;-67
2022/06/09 11:50:19;;;;;;;;;;;20.10;89.70;;;;;;5052458;28;19959;-70
2022/06/09 11:52:47;;;;;;;;;;;20.30;88.20;;;;;;5052042;28;19917;-70
2022/06/09 11:55:28;;;;;;;;;;;20.30;88.00;;;;;;5049716;28;19936;-69
2022/06/09 11:57:54;;;;;;;;;;;20.30;85.90;;;;;;5035088;28;19913;-70
2022/06/09 12:00:19;;;;;;;;;;;20.30;86.00;;;;;;5053252;28;19927;-71
2022/06/09 12:02:57;;;;;;;;;;;20.20;84.10;;;;;;5053944;28;19917;-69
2022/06/09 12:05:41;;;;;;;;;;;20.00;83.00;;;;;;5052401;28;19912;-69
2022/06/09 12:08:06;;;;;;;;;;;20.10;83.20;;;;;;5055882;28;20007;-69
2022/06/09 12:10:51;;;;;;;;;;;20.10;85.10;;;;;;5052137;28;20001;-70
2022/06/09 12:13:18;;;;;;;;;;;20.20;85.30;;;;;;5051901;28;19929;-70
2022/06/09 12:15:53;;;;;;;;;;;20.20;83.30;;;;;;5052188;28;19916;-70
2022/06/09 12:18:19;;;;;;;;;;;20.20;84.10;;;;;;5055569;28;20007;-70
2022/06/09 12:20:48;;;;;;;;;;;20.20;82.90;;;;;;5051879;28;19936;-71
2022/06/09 12:23:32;;;;;;;;;;;20.30;83.90;;;;;;5051812;28;19951;-69
2022/06/09 12:26:09;;;;;;;;;;;20.30;81.60;;;;;;5052251;28;19916;-70
2022/06/09 12:28:44;;;;;;;;;;;20.20;83.40;;;;;;5052294;28;19913;-69
2022/06/09 12:31:10;;;;;;;;;;;20.30;81.40;;;;;;5052685;28;20735;-70
2022/06/09 12:33:37;;;;;;;;;;;20.30;83.60;;;;;;5052721;28;19998;-69
2022/06/09 12:36:04;;;;;;;;;;;20.40;82.90;;;;;;5052364;28;19912;-71
2022/06/09 12:38:30;;;;;;;;;;;20.40;83.00;;;;;;5052319;28;19936;-69
2022/06/09 12:41:01;;;;;;;;;;;20.40;83.60;;;;;;5055452;28;20395;-70
2022/06/09 12:43:34;;;;;;;;;;;20.50;80.80;;;;;;5051713;28;20357;-69
2022/06/09 12:46:02;;;;;;;;;;;20.50;80.10;;;;;;5051347;28;19998;-69
2022/06/09 12:48:28;;;;;;;;;;;20.50;80.90;;;;;;5052393;28;19932;-71
2022/06/09 12:50:55;;;;;;;;;;;20.50;80.00;;;;;;5050881;28;19917;-71
2022/06/09 12:53:26;;;;;;;;;;;20.50;80.80;;;;;;5051098;28;19912;-70
2022/06/09 12:55:53;;;;;;;;;;;20.50;79.90;;;;;;5051245;28;19917;-71
2022/06/09 12:58:21;;;;;;;;;;;20.60;81.60;;;;;;5051692;28;19924;-70
2022/06/09 13:00:53;;;;;;;;;;;20.60;82.00;;;;;;5051369;28;19967;-71
2022/06/09 13:03:23;;;;;;;;;;;20.70;83.10;;;;;;5052047;28;20003;-71
2022/06/09 13:05:49;;;;;;;;;;;20.80;82.30;;;;;;5050543;28;19913;-72
2022/06/09 13:08:14;;;;;;;;;;;20.90;79.10;;;;;;5051231;28;19959;-72
2022/06/09 13:10:41;;;;;;;;;;;20.90;80.10;;;;;;5051679;28;19966;-70
2022/06/09 13:13:14;;;;;;;;;;;21.00;77.10;;;;;;5051218;28;19975;-71
2022/06/09 13:15:53;;;;;;;;;;;21.00;80.20;;;;;;5051366;28;19982;-71
2022/06/09 13:18:31;;;;;;;;;;;21.20;77.90;;;;;;5051856;28;19928;-72
2022/06/09 13:21:02;;;;;;;;;;;21.30;80.10;;;;;;5050590;28;20266;-72
2022/06/09 13:23:29;;;;;;;;;;;21.40;77.70;;;;;;5050853;28;19913;-72
2022/06/09 13:25:55;;;;;;;;;;;21.50;77.50;;;;;;5051541;28;19913;-71
2022/06/09 13:28:20;;;;;;;;;;;21.70;77.00;;;;;;5050356;28;19917;-71
2022/06/09 13:30:50;;;;;;;;;;;21.70;75.50;;;;;;5050865;28;19919;-71
2022/06/09 13:33:41;;;;;;;;;;;21.70;74.60;;;;;;5049532;28;19913;-71
2022/06/09 13:36:20;;;;;;;;;;;21.80;75.80;;;;;;5047812;28;19971;-72
2022/06/09 13:38:46;;;;;;;;;;;21.80;75.20;;;;;;5050393;28;19986;-70
2022/06/09 13:41:16;;;;;;;;;;;21.80;71.80;;;;;;5050558;28;19913;-71
2022/06/09 13:43:49;;;;;;;;;;;21.80;73.00;;;;;;5051419;28;19915;-71
2022/06/09 13:46:21;;;;;;;;;;;21.80;73.80;;;;;;5049727;28;19923;-71
2022/06/09 13:48:47;;;;;;;;;;;21.90;73.50;;;;;;5050740;28;19919;-72
2022/06/09 13:51:21;;;;;;;;;;;22.00;73.70;;;;;;5051058;28;19916;-72
2022/06/09 13:54:07;;;;;;;;;;;21.90;70.20;;;;;;5050449;28;19909;-71
2022/06/09 13:56:34;;;;;;;;;;;21.80;69.60;;;;;;4988425;28;19917;-72
2022/06/09 13:59:00;;;;;;;;;;;21.80;69.60;;;;;;4990165;28;20028;-72
2022/06/09 14:01:25;;;;;;;;;;;21.80;71.80;;;;;;4988621;28;20013;-70
2022/06/09 14:03:51;;;;;;;;;;;21.90;72.80;;;;;;4988186;28;19917;-72
2022/06/09 14:06:20;;;;;;;;;;;22.00;72.70;;;;;;4989573;28;20463;-73
2022/06/09 14:08:47;;;;;;;;;;;22.00;70.00;;;;;;4989170;28;19914;-72
2022/06/09 14:11:23;;;;;;;;;;;21.70;68.20;;;;;;4987459;28;19913;-71
2022/06/09 14:13:53;;;;;;;;;;;21.60;70.20;;;;;;4988685;28;19969;-72
2022/06/09 14:16:21;;;;;;;;;;;21.50;69.70;;;;;;4988758;28;19918;-72
2022/06/09 14:18:47;;;;;;;;;;;21.60;70.80;;;;;;4987844;28;19925;-71
2022/06/09 14:21:12;;;;;;;;;;;21.60;69.60;;;;;;4988717;28;20640;-72
2022/06/09 14:23:38;;;;;;;;;;;21.60;70.30;;;;;;4989329;28;19918;-72
2022/06/09 14:26:05;;;;;;;;;;;21.60;68.50;;;;;;4988095;28;19918;-71
2022/06/09 14:28:31;;;;;;;;;;;21.60;68.60;;;;;;4988219;28;19957;-70
2022/06/09 14:30:57;;;;;;;;;;;21.60;70.00;;;;;;4987691;28;19925;-71
2022/06/09 14:33:23;;;;;;;;;;;21.60;69.70;;;;;;5013257;28;20280;-69
2022/06/09 14:35:49;;;;;;;;;;;21.50;68.40;;;;;;5048880;28;19916;-71
2022/06/09 14:38:14;;;;;;;;;;;21.50;68.20;;;;;;5049210;28;19971;-70
2022/06/09 14:40:42;;;;;;;;;;;21.50;67.60;;;;;;5049225;28;19918;-69
2022/06/09 14:43:09;;;;;;;;;;;21.40;67.40;;;;;;5049366;28;19912;-60
2022/06/09 14:45:35;;;;;;;;;;;21.30;68.70;;;;;;5047340;28;19913;-59
2022/06/09 14:48:01;;;;;;;;;;;21.40;69.00;;;;;;5043723;28;20291;-57